Terminal Aerodrome Forecast
Issued by NWS

Home | Current Version | Previous Version | Graphics & Text | Print | Product List | Glossary On
Versions: 1 2 3 4 5 6 7 8 9 10 11 12 13 14 15 16 17 18 19 20
756
FTUS43 KGRB 270156 AAA
TAFCWA
TAF AMD
KCWA 270156Z 2702/2724 34003KT 5SM -RA BR SCT005 BKN025
     FM270400 VRB03KT 5SM BR OVC005
     FM270800 VRB03KT 3SM BR OVC003
     FM271700 35004KT 6SM BR OVC007=

USA.gov is the U.S. government's official web portal to all federal, state and local government web resources and services.